Time;durP1;ratioP1;P1;durP2;ratioP2;P2;SDS_P1;SDS_P2;PMS_P1;PMS_P2;Temp;Humidity;BMP_temperature;BMP_pressure;BME280_temperature;BME280_humidity;BME280_pressure;Samples;Min_cycle;Max_cycle;Signal;HPM_P1;HPM_P2
2023/07/16 04:38:20;;;;;;;21.42;5.93;;;16.50;99.90;;;;;;6200076;23;20351;-77
2023/07/16 06:28:20;;;;;;;14.43;6.10;;;18.20;99.90;;;;;;6210870;23;20480;-74
2023/07/16 06:35:18;;;;;;;11.88;5.30;;;18.40;99.90;;;;;;6040994;23;20475;-75
2023/07/16 06:37:54;;;;;;;12.98;4.63;;;18.30;99.90;;;;;;6012901;23;20098;-73
2023/07/16 06:40:26;;;;;;;15.57;5.65;;;18.20;99.90;;;;;;6013396;23;20118;-74
2023/07/16 06:43:22;;;;;;;19.65;6.10;;;18.20;99.90;;;;;;6070066;23;20490;-73
2023/07/16 06:46:05;;;;;;;11.88;5.05;;;18.10;99.90;;;;;;6099071;23;20359;-74
2023/07/16 06:48:36;;;;;;;12.25;6.00;;;18.10;99.90;;;;;;6098748;23;20026;-74
2023/07/16 06:52:15;;;;;;;13.13;5.65;;;18.20;99.90;;;;;;6123129;23;20018;-75
2023/07/16 06:55:12;;;;;;;14.98;6.10;;;18.30;99.90;;;;;;6055909;23;20475;-74
2023/07/16 06:58:17;;;;;;;13.35;5.85;;;18.20;99.90;;;;;;6104436;23;20573;-73
2023/07/16 07:00:48;;;;;;;13.85;5.60;;;18.00;99.90;;;;;;6123083;23;20018;-74
2023/07/16 07:04:02;;;;;;;12.77;5.50;;;18.00;99.90;;;;;;6099196;23;20081;-73
2023/07/16 07:06:33;;;;;;;13.50;5.82;;;17.80;99.90;;;;;;6076375;23;20494;-73
2023/07/16 07:09:10;;;;;;;15.02;5.70;;;17.90;99.90;;;;;;6099076;23;20026;-73
2023/07/16 07:14:52;;;;;;;15.25;5.47;;;18.60;99.90;;;;;;5981877;24;20111;-73
2023/07/16 07:17:28;;;;;;;;;;;;;;;;;;;;;
2023/07/16 07:20:28;;;;;;;16.90;5.65;;;18.30;99.90;;;;;;6138943;23;20015;-76
2023/07/16 07:23:04;;;;;;;12.25;5.43;;;18.30;99.90;;;;;;6216709;23;20017;-74
2023/07/16 07:25:36;;;;;;;17.30;5.78;;;18.30;99.90;;;;;;6188200;23;20025;-73
2023/07/16 07:28:30;;;;;;;16.35;5.57;;;18.40;99.90;;;;;;6190280;23;20468;-75
2023/07/16 07:31:04;;;;;;;19.05;5.50;;;18.60;99.90;;;;;;6189752;23;20453;-74
2023/07/16 07:33:41;;;;;;;14.75;5.53;;;18.80;99.90;;;;;;6190426;23;20019;-74
2023/07/16 07:36:19;;;;;;;16.80;5.78;;;19.10;99.90;;;;;;6190468;23;20351;-75
2023/07/16 07:38:44;;;;;;;12.43;5.18;;;19.20;99.90;;;;;;6190366;23;20092;-74
2023/07/16 07:41:13;;;;;;;16.23;5.18;;;19.30;99.90;;;;;;6190321;23;20052;-74
2023/07/16 07:43:41;;;;;;;24.38;5.32;;;19.50;99.90;;;;;;6190208;23;20464;-74
2023/07/16 07:46:29;;;;;;;13.88;5.13;;;19.40;99.90;;;;;;6190171;23;20072;-75
2023/07/16 07:49:00;;;;;;;17.85;5.38;;;19.40;99.90;;;;;;6212488;23;20024;-74
2023/07/16 07:51:34;;;;;;;16.58;5.75;;;19.30;99.90;;;;;;6216742;23;20471;-75
2023/07/16 08:17:39;;;;;;;18.58;5.80;;;19.90;99.90;;;;;;6013787;23;20479;-76
2023/07/16 08:20:08;;;;;;;15.55;4.90;;;19.80;99.90;;;;;;6054795;23;20014;-74
2023/07/16 08:22:37;;;;;;;13.95;5.38;;;19.90;99.90;;;;;;6179516;23;20023;-75
2023/07/16 08:29:09;;;;;;;13.00;4.50;;;20.20;99.90;;;;;;6110311;23;20025;-75
2023/07/16 08:31:35;;;;;;;13.73;4.57;;;20.20;99.90;;;;;;6216790;23;20016;-74
2023/07/16 08:34:09;;;;;;;10.60;4.22;;;20.10;99.90;;;;;;6216743;23;20039;-74
2023/07/16 08:40:13;;;;;;;12.25;4.63;;;19.90;99.90;;;;;;6187962;23;20520;-76
2023/07/16 08:42:58;;;;;;;12.38;4.68;;;20.00;99.90;;;;;;6189707;23;20012;-76
2023/07/16 08:45:27;;;;;;;13.10;5.10;;;20.20;99.90;;;;;;6215086;23;20193;-74
2023/07/16 08:48:41;;;;;;;12.27;5.07;;;20.40;99.90;;;;;;6216277;23;20020;-76
2023/07/16 08:51:16;;;;;;;16.58;5.85;;;20.50;99.90;;;;;;6189756;23;20063;-76
2023/07/16 08:53:47;;;;;;;15.57;5.35;;;20.50;99.90;;;;;;6216346;23;20012;-76
2023/07/16 08:57:01;;;;;;;12.03;5.07;;;20.40;99.90;;;;;;6216163;23;20025;-77
2023/07/16 08:59:27;;;;;;;14.57;5.32;;;20.70;99.90;;;;;;6164433;23;20020;-74
2023/07/16 09:05:32;;;;;;;13.85;5.50;;;20.80;99.90;;;;;;6178823;23;20075;-76
2023/07/16 09:08:02;;;;;;;14.48;4.72;;;20.90;99.90;;;;;;6215401;23;20096;-76
2023/07/16 09:17:59;;;;;;;10.57;4.25;;;21.00;99.90;;;;;;6216236;23;20071;-75
2023/07/16 09:21:02;;;;;;;13.02;4.03;;;21.10;99.90;;;;;;6189309;23;20020;-75
2023/07/16 09:23:56;;;;;;;11.77;4.03;;;21.10;99.90;;;;;;6189515;23;20345;-75
2023/07/16 09:29:10;;;;;;;11.90;4.43;;;21.00;99.90;;;;;;6189412;22;19923;-75
2023/07/16 09:34:54;;;;;;;11.65;4.75;;;20.60;99.90;;;;;;6185761;23;20048;-74
2023/07/16 09:38:15;;;;;;;;;;;;;;;;;;;;;
2023/07/16 09:41:10;;;;;;;12.13;4.57;;;20.80;99.90;;;;;;6190895;23;20510;-75
2023/07/16 09:43:45;;;;;;;14.95;5.13;;;21.00;99.90;;;;;;6189247;23;20096;-75
2023/07/16 09:46:40;;;;;;;13.77;4.82;;;21.10;99.90;;;;;;6189573;23;20016;-75
2023/07/16 09:49:36;;;;;;;13.82;5.30;;;21.10;99.90;;;;;;6146886;23;20462;-75
2023/07/16 09:52:59;;;;;;;15.63;5.40;;;21.00;99.90;;;;;;6187586;23;20020;-75
2023/07/16 09:56:32;;;;;;;;;;;;;;;;;;;;;
2023/07/16 09:58:59;;;;;;;12.95;5.57;;;21.00;99.90;;;;;;6066467;23;20126;-74
2023/07/16 10:01:53;;;;;;;12.95;5.03;;;20.90;99.90;;;;;;6070874;23;20070;-75
2023/07/16 10:04:46;;;;;;;14.45;5.53;;;20.70;99.90;;;;;;6123657;23;20070;-75
2023/07/16 10:07:41;;;;;;;15.02;5.22;;;20.70;99.90;;;;;;6189376;23;20017;-75
2023/07/16 10:10:44;;;;;;;11.77;4.80;;;20.80;99.90;;;;;;6189471;23;20024;-75
2023/07/16 10:14:06;;;;;;;13.63;5.05;;;20.90;99.90;;;;;;6215917;23;20448;-75
2023/07/16 10:20:14;;;;;;;14.35;5.03;;;21.00;99.90;;;;;;6215954;23;20056;-76
2023/07/16 10:23:43;;;;;;;11.75;4.30;;;20.90;99.90;;;;;;6158027;23;20024;-75
2023/07/16 10:26:55;;;;;;;11.85;5.13;;;20.60;99.90;;;;;;6215942;23;20087;-76
2023/07/16 10:30:13;;;;;;;12.23;4.55;;;20.50;99.90;;;;;;6188355;23;20017;-75
2023/07/16 10:32:40;;;;;;;14.98;4.70;;;20.60;99.90;;;;;;6215351;23;20523;-75
2023/07/16 10:35:09;;;;;;;16.05;5.43;;;20.40;99.90;;;;;;6189116;23;20009;-76
2023/07/16 10:37:35;;;;;;;14.27;4.65;;;20.40;99.90;;;;;;6189084;23;20025;-76
2023/07/16 10:40:16;;;;;;;12.70;5.38;;;20.40;99.90;;;;;;6189190;23;20441;-75
2023/07/16 10:42:43;;;;;;;14.73;4.60;;;20.60;99.90;;;;;;6189171;23;20025;-74
2023/07/16 10:45:19;;;;;;;12.77;4.75;;;20.60;99.90;;;;;;6189936;23;20013;-75
2023/07/16 10:47:53;;;;;;;12.55;5.05;;;20.50;99.90;;;;;;6217880;23;20021;-75
2023/07/16 10:50:19;;;;;;;13.98;4.88;;;20.40;99.90;;;;;;6191581;23;20021;-75
2023/07/16 10:52:45;;;;;;;15.63;5.03;;;20.20;99.90;;;;;;6191041;23;20020;-74
2023/07/16 10:55:11;;;;;;;14.02;4.63;;;20.20;99.90;;;;;;6190987;23;20020;-74
2023/07/16 10:57:36;;;;;;;14.45;4.38;;;20.40;99.90;;;;;;6217779;23;20005;-76
2023/07/16 11:00:03;;;;;;;13.30;4.88;;;20.30;99.90;;;;;;6190857;23;20385;-80
2023/07/16 11:02:29;;;;;;;10.32;4.90;;;20.20;99.90;;;;;;6190941;23;20456;-79
2023/07/16 11:04:57;;;;;;;17.02;5.82;;;19.90;99.90;;;;;;6190841;23;20020;-78
2023/07/16 11:07:26;;;;;;;17.15;5.22;;;19.60;99.90;;;;;;6217756;23;20012;-74
2023/07/16 11:09:54;;;;;;;15.95;5.72;;;19.70;99.90;;;;;;6190953;23;20453;-74
2023/07/16 11:12:22;;;;;;;12.30;4.78;;;19.70;99.90;;;;;;6190717;23;20416;-75
2023/07/16 11:15:07;;;;;;;15.60;5.07;;;19.90;99.90;;;;;;6190717;23;20020;-75
2023/07/16 11:17:32;;;;;;;13.93;5.82;;;19.80;99.90;;;;;;6191302;23;20084;-74
2023/07/16 11:20:00;;;;;;;14.00;4.95;;;19.90;99.90;;;;;;6191061;23;20024;-74
2023/07/16 11:22:26;;;;;;;14.38;5.00;;;20.00;99.90;;;;;;6217309;23;20099;-75
2023/07/16 11:24:58;;;;;;;12.02;4.68;;;19.90;99.90;;;;;;6190500;23;20024;-74
2023/07/16 11:27:29;;;;;;;13.82;6.07;;;19.70;99.90;;;;;;6190395;23;20020;-75
2023/07/16 11:30:00;;;;;;;17.08;5.70;;;19.50;99.90;;;;;;6190374;23;20051;-76
2023/07/16 11:32:48;;;;;;;12.98;4.95;;;19.70;99.90;;;;;;6217680;23;20100;-76
2023/07/16 11:35:18;;;;;;;10.95;5.20;;;19.80;99.90;;;;;;6217562;23;20055;-75
2023/07/16 11:56:51;;;;;;;;;;;;;;;;;;;;;
2023/07/16 12:03:56;;;;;;;9.93;3.30;;;20.80;99.90;;;;;;6124997;23;20017;-74
2023/07/16 12:06:43;;;;;;;11.05;2.30;;;20.80;99.90;;;;;;6041191;23;20027;-76
2023/07/16 12:24:49;;;;;;;13.07;3.03;;;21.00;99.90;;;;;;5792037;24;20161;-76
2023/07/16 12:28:09;;;;;;;15.87;2.73;;;21.20;99.90;;;;;;5791877;24;20031;-75
2023/07/16 12:31:26;;;;;;;;;;;;;;;;;;;;;
2023/07/16 12:35:02;;;;;;;;;;;;;;;;;;;;;
2023/07/16 12:58:27;;;;;;;18.42;3.88;;;18.90;99.90;;;;;;6182112;23;20029;-73
2023/07/16 13:05:25;;;;;;;17.35;3.42;;;19.00;99.90;;;;;;6042079;23;20033;-73
2023/07/16 13:07:50;;;;;;;17.25;3.85;;;19.00;99.90;;;;;;6000930;23;20313;-73
2023/07/16 13:10:19;;;;;;;17.55;3.70;;;19.20;99.90;;;;;;6155343;23;20021;-73
2023/07/16 13:12:44;;;;;;;16.67;4.90;;;19.40;99.90;;;;;;6160057;23;20048;-73
2023/07/16 13:15:13;;;;;;;14.73;4.57;;;19.50;99.90;;;;;;6186595;23;20013;-73
2023/07/16 13:17:41;;;;;;;15.98;4.20;;;19.50;99.90;;;;;;6185699;23;20398;-73
2023/07/16 13:20:11;;;;;;;13.70;3.08;;;19.70;99.90;;;;;;6159963;23;20032;-74
2023/07/16 13:22:37;;;;;;;18.05;3.95;;;19.60;99.90;;;;;;6185472;23;20024;-73
2023/07/16 13:25:02;;;;;;;13.13;3.30;;;19.70;99.90;;;;;;6159777;23;20013;-74
2023/07/16 13:27:28;;;;;;;13.27;3.08;;;19.80;99.90;;;;;;6185975;23;20397;-73
2023/07/16 13:29:54;;;;;;;16.27;3.05;;;20.00;99.90;;;;;;6159783;23;20433;-73
2023/07/16 13:32:19;;;;;;;17.85;3.25;;;20.00;99.90;;;;;;6186204;23;20020;-73
2023/07/16 13:34:45;;;;;;;17.35;3.25;;;19.80;99.90;;;;;;6159615;23;20021;-76
2023/07/16 13:37:11;;;;;;;11.85;3.50;;;19.90;99.90;;;;;;6159956;23;20429;-76
2023/07/16 13:39:36;;;;;;;16.42;3.58;;;19.90;99.90;;;;;;6186303;23;20017;-75
2023/07/16 13:42:02;;;;;;;10.63;2.83;;;20.10;99.90;;;;;;6159469;23;20088;-76
2023/07/16 13:44:28;;;;;;;11.80;3.47;;;20.00;99.90;;;;;;6186304;23;20014;-73
2023/07/16 13:46:53;;;;;;;20.45;3.30;;;20.00;99.90;;;;;;6159449;23;20045;-72
2023/07/16 13:49:19;;;;;;;13.93;3.25;;;20.00;99.90;;;;;;6185940;23;20463;-72
2023/07/16 13:51:45;;;;;;;14.55;3.25;;;20.10;99.90;;;;;;6159449;23;20017;-75
2023/07/16 13:54:12;;;;;;;13.15;2.85;;;20.10;99.90;;;;;;6186064;23;20020;-75
2023/07/16 13:56:37;;;;;;;12.48;3.13;;;20.10;99.90;;;;;;6185625;23;20096;-75
2023/07/16 13:59:06;;;;;;;16.27;2.80;;;20.00;99.90;;;;;;6184464;23;20024;-75
2023/07/16 14:01:31;;;;;;;14.57;3.00;;;20.10;99.90;;;;;;6186084;23;20017;-75
2023/07/16 14:04:00;;;;;;;11.98;3.20;;;20.20;99.90;;;;;;6185645;23;20021;-75
2023/07/16 14:06:26;;;;;;;15.02;3.25;;;20.40;99.90;;;;;;6159456;23;20021;-75
2023/07/16 14:08:51;;;;;;;14.77;3.25;;;20.50;99.90;;;;;;6159633;23;20062;-75
2023/07/16 14:11:18;;;;;;;19.25;3.92;;;20.60;99.90;;;;;;6185954;23;20373;-73
2023/07/16 14:13:48;;;;;;;13.20;3.08;;;20.60;99.90;;;;;;6185791;23;20445;-75
2023/07/16 14:16:17;;;;;;;13.05;2.90;;;20.60;99.90;;;;;;6185763;23;20103;-75
2023/07/16 14:18:42;;;;;;;11.98;2.75;;;20.50;99.90;;;;;;6185859;23;20044;-74
2023/07/16 14:21:08;;;;;;;13.90;3.10;;;20.50;99.90;;;;;;6185902;23;20028;-75
2023/07/16 14:23:34;;;;;;;12.85;2.92;;;20.40;99.90;;;;;;6186057;23;20056;-75
2023/07/16 14:26:17;;;;;;;12.93;3.10;;;20.30;99.90;;;;;;6159476;23;20021;-75
2023/07/16 14:28:42;;;;;;;14.02;3.35;;;20.30;99.90;;;;;;6159169;23;20021;-75
2023/07/16 14:44:05;;;;;;;21.55;5.15;;;20.40;99.90;;;;;;6211993;23;20461;-72
2023/07/16 14:46:31;;;;;;;12.70;2.63;;;20.60;99.90;;;;;;6188881;23;20031;-75
2023/07/16 14:48:58;;;;;;;14.88;2.63;;;20.60;99.90;;;;;;6188851;23;20147;-75
2023/07/16 14:51:24;;;;;;;11.82;2.50;;;20.80;99.90;;;;;;6215764;23;20143;-74
2023/07/16 14:53:52;;;;;;;10.23;2.42;;;20.90;99.90;;;;;;6188799;23;20017;-74
2023/07/16 14:56:21;;;;;;;18.55;3.17;;;20.80;99.90;;;;;;6216002;23;20017;-75
2023/07/16 14:58:47;;;;;;;11.68;2.65;;;20.70;99.90;;;;;;6215469;23;20437;-75
2023/07/16 15:01:12;;;;;;;12.02;2.35;;;20.60;99.90;;;;;;6215698;23;20096;-74
2023/07/16 15:03:40;;;;;;;8.73;2.38;;;20.60;99.90;;;;;;6216068;23;20020;-75
2023/07/16 16:04:25;;;;;;;11.70;1.77;;;20.50;99.90;;;;;;6197167;22;20021;-72
2023/07/16 16:06:51;;;;;;;10.43;1.98;;;20.70;99.90;;;;;;6190287;23;20390;-72
2023/07/16 16:09:16;;;;;;;10.82;1.65;;;20.70;99.90;;;;;;6190216;23;20054;-73
2023/07/16 16:11:45;;;;;;;17.10;2.25;;;20.60;99.90;;;;;;6190247;23;20031;-72
2023/07/16 16:14:14;;;;;;;9.25;2.10;;;20.50;99.90;;;;;;6189983;23;20471;-73
2023/07/16 16:16:39;;;;;;;12.98;2.10;;;20.50;99.90;;;;;;6216803;23;20059;-75
2023/07/16 16:19:05;;;;;;;11.02;2.63;;;20.50;99.90;;;;;;6189878;23;20021;-75
2023/07/16 16:21:31;;;;;;;8.77;2.08;;;20.40;99.90;;;;;;6216693;23;20012;-75
2023/07/16 16:24:03;;;;;;;10.48;1.88;;;20.50;99.90;;;;;;6190136;23;20020;-75
2023/07/16 16:26:29;;;;;;;13.25;2.28;;;20.50;99.90;;;;;;6189829;23;20025;-74
2023/07/16 16:29:15;;;;;;;10.77;2.47;;;20.60;99.90;;;;;;6190552;23;20021;-74
2023/07/16 16:31:41;;;;;;;6.20;1.88;;;20.70;99.90;;;;;;6216001;23;20017;-75
2023/07/16 16:34:18;;;;;;;10.90;1.92;;;20.60;99.90;;;;;;6190122;23;20015;-74
2023/07/16 16:36:47;;;;;;;10.85;2.10;;;20.60;99.90;;;;;;6190148;23;20027;-74
2023/07/16 16:39:13;;;;;;;9.48;2.10;;;20.60;99.90;;;;;;6190173;23;20376;-74
2023/07/16 16:41:38;;;;;;;10.52;2.13;;;20.60;99.90;;;;;;6189272;23;20017;-74
2023/07/16 16:44:04;;;;;;;15.27;2.50;;;20.70;99.90;;;;;;6216930;23;20102;-74
2023/07/16 16:59:59;;;;;;;15.00;2.50;;;20.80;99.90;;;;;;6201859;22;20349;-72
2023/07/16 17:02:29;;;;;;;12.35;2.22;;;20.90;99.90;;;;;;6189549;23;20020;-72
2023/07/16 17:04:55;;;;;;;9.57;2.60;;;20.90;99.90;;;;;;6189596;23;20016;-75
2023/07/16 17:07:21;;;;;;;7.97;2.17;;;20.80;99.90;;;;;;6189757;23;20021;-75
2023/07/16 17:09:53;;;;;;;12.35;1.90;;;20.90;99.90;;;;;;6189749;23;20024;-75
2023/07/16 17:20:38;;;;;;;13.07;2.20;;;20.80;99.90;;;;;;6182652;22;20032;-73
2023/07/16 17:23:06;;;;;;;12.93;2.63;;;20.70;99.90;;;;;;6159717;23;20028;-75
2023/07/16 17:25:31;;;;;;;11.05;2.10;;;20.70;99.90;;;;;;6159660;23;20088;-76
2023/07/16 17:27:57;;;;;;;15.25;2.42;;;20.70;99.90;;;;;;6159694;23;20051;-75
2023/07/16 17:30:25;;;;;;;7.45;1.80;;;20.50;99.90;;;;;;6159766;23;20028;-76
